Time,TemperatureF,DewpointF,PressureIn,WindDirection,WindDirectionDegrees,WindSpeedMPH,WindSpeedGustMPH,Humidity,HourlyPrecipIn,Conditions,Clouds,dailyrainin,SoftwareType,DateUTC
2013-02-10 00:03:00,39.5,36.2,30.25,South,178,0.0,0.0,88,0.00,,,0.00,Wunderground v.1.15,2013-02-10 05:03:00,
2013-02-10 00:33:00,38.9,35.6,30.25,South,178,0.0,0.0,88,0.00,,,0.00,Wunderground v.1.15,2013-02-10 05:33:00,
2013-02-10 00:43:00,38.5,35.3,30.25,South,178,0.0,0.0,88,0.00,,,0.00,Wunderground v.1.15,2013-02-10 05:43:00,
2013-02-10 00:55:00,38.4,35.2,30.25,South,178,0.0,0.0,88,0.00,,,0.00,Wunderground v.1.15,2013-02-10 05:55:00,
2013-02-10 01:05:00,38.4,35.2,30.25,South,178,0.0,0.0,88,0.00,,,0.00,Wunderground v.1.15,2013-02-10 06:05:00,
2013-02-10 01:15:00,38.4,35.2,30.25,South,178,0.0,0.0,88,0.00,,,0.00,Wunderground v.1.15,2013-02-10 06:15:00,
2013-02-10 01:25:00,38.6,35.6,30.25,South,178,0.0,0.0,89,0.00,,,0.00,Wunderground v.1.15,2013-02-10 06:25:00,
2013-02-10 01:34:00,38.9,36.2,30.26,South,178,0.0,0.0,90,0.00,,,0.00,Wunderground v.1.15,2013-02-10 06:34:00,
2013-02-10 01:45:00,38.9,35.9,30.26,South,178,0.0,0.0,89,0.00,,,0.00,Wunderground v.1.15,2013-02-10 06:45:00,
2013-02-10 01:54:00,39.0,36.0,30.26,South,178,0.0,0.0,89,0.00,,,0.00,Wunderground v.1.15,2013-02-10 06:54:00,
2013-02-10 02:04:00,39.0,36.0,30.26,South,178,0.0,0.0,89,0.00,,,0.00,Wunderground v.1.15,2013-02-10 07:04:00,
2013-02-10 02:14:00,38.9,35.9,30.26,South,178,0.0,0.0,89,0.00,,,0.00,Wunderground v.1.15,2013-02-10 07:14:00,
2013-02-10 02:24:00,38.7,35.7,30.26,South,178,0.0,0.0,89,0.00,,,0.00,Wunderground v.1.15,2013-02-10 07:24:00,
2013-02-10 02:44:00,38.9,36.2,30.26,South,178,0.0,0.0,90,0.00,,,0.00,Wunderground v.1.15,2013-02-10 07:44:00,
2013-02-10 02:54:00,39.0,36.3,30.27,South,178,0.0,0.0,90,0.00,,,0.00,Wunderground v.1.15,2013-02-10 07:54:00,
2013-02-10 03:14:00,39.3,36.9,30.27,South,178,0.0,0.0,91,0.00,,,0.00,Wunderground v.1.15,2013-02-10 08:14:00,
2013-02-10 03:24:00,39.1,36.4,30.26,South,178,0.0,0.0,90,0.00,,,0.00,Wunderground v.1.15,2013-02-10 08:24:00,
2013-02-10 03:34:00,39.1,36.4,30.25,South,178,0.0,0.0,90,0.00,,,0.00,Wunderground v.1.15,2013-02-10 08:34:00,
2013-02-10 03:54:00,39.5,37.1,30.26,South,178,0.0,0.0,91,0.00,,,0.00,Wunderground v.1.15,2013-02-10 08:54:00,
2013-02-10 04:04:00,39.3,36.3,30.25,South,178,0.0,0.0,89,0.00,,,0.00,Wunderground v.1.15,2013-02-10 09:04:00,
2013-02-10 04:14:00,39.3,36.6,30.25,South,178,0.0,0.0,90,0.00,,,0.00,Wunderground v.1.15,2013-02-10 09:14:00,
2013-02-10 04:24:00,39.6,37.2,30.26,South,178,0.0,0.0,91,0.00,,,0.00,Wunderground v.1.15,2013-02-10 09:24:00,
2013-02-10 04:34:00,39.5,37.1,30.26,South,178,0.0,0.0,91,0.00,,,0.00,Wunderground v.1.15,2013-02-10 09:34:00,
2013-02-10 04:44:00,39.3,36.6,30.26,South,178,0.0,0.0,90,0.00,,,0.00,Wunderground v.1.15,2013-02-10 09:44:00,
2013-02-10 04:55:00,39.3,36.9,30.27,South,178,0.0,0.0,91,0.00,,,0.00,Wunderground v.1.15,2013-02-10 09:55:00,
2013-02-10 05:05:00,39.5,37.1,30.28,South,178,0.0,0.0,91,0.00,,,0.00,Wunderground v.1.15,2013-02-10 10:05:00,
2013-02-10 05:14:00,39.4,37.0,30.28,South,178,0.0,0.0,91,0.00,,,0.00,Wunderground v.1.15,2013-02-10 10:14:00,
2013-02-10 05:24:00,39.2,36.5,30.28,South,178,0.0,0.0,90,0.00,,,0.00,Wunderground v.1.15,2013-02-10 10:24:00,
2013-02-10 05:34:00,39.2,36.8,30.28,South,178,0.0,0.0,91,0.00,,,0.00,Wunderground v.1.15,2013-02-10 10:34:00,
2013-02-10 05:44:00,39.1,36.4,30.28,South,178,0.0,0.0,90,0.00,,,0.00,Wunderground v.1.15,2013-02-10 10:44:00,
2013-02-10 05:54:00,39.1,36.4,30.28,South,178,0.0,0.0,90,0.00,,,0.00,Wunderground v.1.15,2013-02-10 10:54:00,
2013-02-10 06:04:00,39.1,36.4,30.30,South,178,0.0,0.0,90,0.00,,,0.00,Wunderground v.1.15,2013-02-10 11:04:00,
2013-02-10 06:14:00,39.1,36.4,30.30,South,178,0.0,0.0,90,0.00,,,0.00,Wunderground v.1.15,2013-02-10 11:14:00,
2013-02-10 06:24:00,39.1,36.7,30.30,South,178,0.0,0.0,91,0.00,,,0.00,Wunderground v.1.15,2013-02-10 11:24:00,
2013-02-10 06:34:00,39.1,36.4,30.30,South,178,0.0,0.0,90,0.00,,,0.00,Wunderground v.1.15,2013-02-10 11:34:00,
2013-02-10 06:54:00,39.0,36.6,30.31,South,178,0.0,0.0,91,0.00,,,0.00,Wunderground v.1.15,2013-02-10 11:54:00,
2013-02-10 07:04:00,39.0,36.6,30.31,South,178,0.0,0.0,91,0.00,,,0.00,Wunderground v.1.15,2013-02-10 12:04:00,
2013-02-10 07:14:00,39.0,36.6,30.31,South,178,0.0,0.0,91,0.00,,,0.00,Wunderground v.1.15,2013-02-10 12:14:00,
2013-02-10 07:24:00,39.2,36.8,30.31,South,175,0.0,0.0,91,0.00,,,0.00,Wunderground v.1.15,2013-02-10 12:24:00,
2013-02-10 07:45:00,39.6,37.5,30.31,South,175,0.0,0.0,92,0.00,,,0.00,Wunderground v.1.15,2013-02-10 12:45:00,
2013-02-10 07:55:00,40.0,37.6,30.31,ENE,74,0.0,0.0,91,0.00,,,0.00,Wunderground v.1.15,2013-02-10 12:55:00,
2013-02-10 08:05:00,40.2,37.8,30.31,ENE,74,0.0,1.0,91,0.00,,,0.00,Wunderground v.1.15,2013-02-10 13:05:00,
2013-02-10 08:14:00,40.5,38.1,30.31,East,80,0.0,0.0,91,0.00,,,0.00,Wunderground v.1.15,2013-02-10 13:14:00,
2013-02-10 08:24:00,41.5,38.5,30.31,East,93,1.0,2.0,89,0.00,,,0.00,Wunderground v.1.15,2013-02-10 13:24:00,
2013-02-10 08:35:00,42.8,38.6,30.31,East,94,1.0,1.0,85,0.00,,,0.00,Wunderground v.1.15,2013-02-10 13:35:00,
2013-02-10 08:45:00,43.8,38.3,30.31,ENE,72,2.0,2.0,81,0.00,,,0.00,Wunderground v.1.15,2013-02-10 13:45:00,
2013-02-10 08:54:00,45.0,39.2,30.31,ENE,75,1.0,1.0,80,0.00,,,0.00,Wunderground v.1.15,2013-02-10 13:54:00,
2013-02-10 09:04:00,45.7,38.9,30.30,East,101,1.0,1.0,77,0.00,,,0.00,Wunderground v.1.15,2013-02-10 14:04:00,
2013-02-10 09:14:00,46.5,39.7,30.30,East,96,1.0,3.0,77,0.00,,,0.00,Wunderground v.1.15,2013-02-10 14:14:00,
2013-02-10 09:24:00,47.9,40.0,30.31,SE,124,2.0,4.0,74,0.00,,,0.00,Wunderground v.1.15,2013-02-10 14:24:00,
2013-02-10 09:34:00,49.2,40.2,30.28,ESE,106,4.0,4.0,71,0.00,,,0.00,Wunderground v.1.15,2013-02-10 14:34:00,
2013-02-10 09:44:00,50.1,39.9,30.28,East,83,1.0,1.0,68,0.00,,,0.00,Wunderground v.1.15,2013-02-10 14:44:00,
2013-02-10 10:04:00,49.6,40.2,30.31,East,94,1.0,1.0,70,0.00,,,0.00,Wunderground v.1.15,2013-02-10 15:04:00,
2013-02-10 10:14:00,50.6,40.8,30.31,East,95,1.0,1.0,69,0.00,,,0.00,Wunderground v.1.15,2013-02-10 15:14:00,
2013-02-10 10:24:00,52.3,40.5,30.32,East,96,1.0,2.0,64,0.00,,,0.00,Wunderground v.1.15,2013-02-10 15:24:00,
2013-02-10 10:34:00,54.5,41.7,30.33,ESE,104,1.0,1.0,62,0.00,,,0.00,Wunderground v.1.15,2013-02-10 15:34:00,
2013-02-10 10:45:00,55.8,41.2,30.33,SSE,150,1.0,2.0,58,0.00,,,0.00,Wunderground v.1.15,2013-02-10 15:45:00,
2013-02-10 10:55:00,56.2,40.7,30.34,SE,127,2.0,2.0,56,0.00,,,0.00,Wunderground v.1.15,2013-02-10 15:55:00,
2013-02-10 11:05:00,56.3,41.7,30.33,SE,134,2.0,2.0,58,0.00,,,0.00,Wunderground v.1.15,2013-02-10 16:05:00,
2013-02-10 11:15:00,56.6,41.5,30.33,East,96,2.0,5.0,57,0.00,,,0.00,Wunderground v.1.15,2013-02-10 16:15:00,
2013-02-10 11:25:00,57.2,42.5,30.32,East,100,2.0,2.0,58,0.00,,,0.00,Wunderground v.1.15,2013-02-10 16:25:00,
2013-02-10 11:35:00,58.9,44.1,30.31,South,172,3.0,4.0,58,0.00,,,0.00,Wunderground v.1.15,2013-02-10 16:35:00,
2013-02-10 11:44:00,59.1,43.9,30.31,SSE,151,4.0,4.0,57,0.00,,,0.00,Wunderground v.1.15,2013-02-10 16:44:00,
2013-02-10 11:54:00,59.5,45.2,30.30,East,86,4.0,7.0,59,0.00,,,0.00,Wunderground v.1.15,2013-02-10 16:54:00,
2013-02-10 12:05:00,60.0,46.1,30.29,SE,127,5.0,5.0,60,0.00,,,0.00,Wunderground v.1.15,2013-02-10 17:05:00,
2013-02-10 12:14:00,60.2,46.7,30.29,ESE,102,5.0,8.0,61,0.00,,,0.00,Wunderground v.1.15,2013-02-10 17:14:00,
2013-02-10 12:24:00,60.7,46.7,30.28,SSE,148,4.0,4.0,60,0.00,,,0.00,Wunderground v.1.15,2013-02-10 17:24:00,
2013-02-10 12:34:00,61.1,47.1,30.26,SE,146,4.0,4.0,60,0.00,,,0.00,Wunderground v.1.15,2013-02-10 17:34:00,
2013-02-10 12:44:00,60.8,46.8,30.26,East,88,4.0,11.0,60,0.00,,,0.00,Wunderground v.1.15,2013-02-10 17:44:00,
2013-02-10 12:54:00,61.4,47.8,30.26,SSE,162,5.0,5.0,61,0.00,,,0.00,Wunderground v.1.15,2013-02-10 17:54:00,
2013-02-10 13:04:00,61.8,48.6,30.24,ESE,103,5.0,5.0,62,0.00,,,0.00,Wunderground v.1.15,2013-02-10 18:04:00,
2013-02-10 13:14:00,62.4,48.8,30.24,ESE,111,6.0,9.0,61,0.00,,,0.00,Wunderground v.1.15,2013-02-10 18:14:00,
2013-02-10 13:24:00,62.7,49.5,30.22,ENE,71,5.0,5.0,62,0.00,,,0.00,Wunderground v.1.15,2013-02-10 18:24:00,
2013-02-10 13:34:00,62.9,49.7,30.20,ESE,111,5.0,12.0,62,0.00,,,0.00,Wunderground v.1.15,2013-02-10 18:34:00,
2013-02-10 13:45:00,63.2,50.0,30.20,East,99,7.0,7.0,62,0.00,,,0.00,Wunderground v.1.15,2013-02-10 18:45:00,
2013-02-10 13:55:00,63.7,50.4,30.19,ESE,115,8.0,9.0,62,0.00,,,0.00,Wunderground v.1.15,2013-02-10 18:55:00,
2013-02-10 14:05:00,64.4,51.1,30.18,SSE,168,6.0,6.0,62,0.00,,,0.00,Wunderground v.1.15,2013-02-10 19:05:00,
2013-02-10 14:14:00,64.3,51.0,30.18,ESE,114,6.0,9.0,62,0.00,,,0.00,Wunderground v.1.15,2013-02-10 19:14:00,
2013-02-10 14:25:00,65.0,51.7,30.18,SE,130,4.0,11.0,62,0.00,,,0.00,Wunderground v.1.15,2013-02-10 19:25:00,
2013-02-10 14:44:00,65.2,51.4,30.18,SE,136,5.0,5.0,61,0.00,,,0.00,Wunderground v.1.15,2013-02-10 19:44:00,
2013-02-10 14:54:00,65.5,51.7,30.17,ESE,116,5.0,5.0,61,0.00,,,0.00,Wunderground v.1.15,2013-02-10 19:54:00,
2013-02-10 15:04:00,65.7,51.0,30.16,ESE,119,6.0,6.0,59,0.00,,,0.00,Wunderground v.1.15,2013-02-10 20:04:00,
2013-02-10 15:14:00,66.1,51.8,30.16,SE,146,5.0,10.0,60,0.00,,,0.00,Wunderground v.1.15,2013-02-10 20:14:00,
2013-02-10 15:24:00,65.7,51.4,30.15,SSE,167,5.0,7.0,60,0.00,,,0.00,Wunderground v.1.15,2013-02-10 20:24:00,
2013-02-10 15:34:00,65.8,52.0,30.14,SSE,148,6.0,6.0,61,0.00,,,0.00,Wunderground v.1.15,2013-02-10 20:34:00,
2013-02-10 15:44:00,65.7,51.4,30.14,SSE,153,6.0,6.0,60,0.00,,,0.00,Wunderground v.1.15,2013-02-10 20:44:00,
2013-02-10 16:04:00,65.7,51.9,30.14,SSE,148,6.0,6.0,61,0.00,,,0.00,Wunderground v.1.15,2013-02-10 21:04:00,
2013-02-10 16:14:00,66.1,52.3,30.14,SSE,157,4.0,9.0,61,0.00,,,0.00,Wunderground v.1.15,2013-02-10 21:14:00,
2013-02-10 16:24:00,66.1,52.7,30.14,South,172,6.0,6.0,62,0.00,,,0.00,Wunderground v.1.15,2013-02-10 21:24:00,
2013-02-10 16:34:00,65.9,52.5,30.13,SSE,159,5.0,11.0,62,0.00,,,0.00,Wunderground v.1.15,2013-02-10 21:34:00,
2013-02-10 16:45:00,65.6,53.1,30.13,East,82,4.0,11.0,64,0.00,,,0.00,Wunderground v.1.15,2013-02-10 21:45:00,
2013-02-10 16:55:00,65.5,53.0,30.12,East,100,3.0,3.0,64,0.00,,,0.00,Wunderground v.1.15,2013-02-10 21:55:00,
2013-02-10 17:05:00,65.4,52.9,30.12,ESE,110,4.0,4.0,64,0.00,,,0.00,Wunderground v.1.15,2013-02-10 22:05:00,
2013-02-10 17:14:00,65.6,53.1,30.12,ESE,121,4.0,4.0,64,0.00,,,0.00,Wunderground v.1.15,2013-02-10 22:14:00,
2013-02-10 17:24:00,65.6,53.1,30.11,ENE,72,4.0,8.0,64,0.00,,,0.00,Wunderground v.1.15,2013-02-10 22:24:00,
2013-02-10 17:34:00,65.0,53.4,30.10,East,100,5.0,7.0,66,0.00,,,0.00,Wunderground v.1.15,2013-02-10 22:34:00,
2013-02-10 17:45:00,64.6,53.4,30.10,East,88,5.0,5.0,67,0.00,,,0.00,Wunderground v.1.15,2013-02-10 22:45:00,
2013-02-10 17:54:00,64.2,53.4,30.10,SE,127,4.0,4.0,68,0.00,,,0.00,Wunderground v.1.15,2013-02-10 22:54:00,
2013-02-10 18:04:00,63.8,53.4,30.10,ENE,76,2.0,2.0,69,0.00,,,0.00,Wunderground v.1.15,2013-02-10 23:04:00,
2013-02-10 18:14:00,63.6,53.6,30.10,SE,138,3.0,3.0,70,0.00,,,0.00,Wunderground v.1.15,2013-02-10 23:14:00,
2013-02-10 18:24:00,63.3,53.3,30.09,East,95,2.0,7.0,70,0.00,,,0.00,Wunderground v.1.15,2013-02-10 23:24:00,
2013-02-10 18:34:00,63.0,53.4,30.06,ESE,109,4.0,7.0,71,0.00,,,0.00,Wunderground v.1.15,2013-02-10 23:34:00,
2013-02-10 18:44:00,62.7,53.5,30.06,ESE,115,4.0,4.0,72,0.00,,,0.00,Wunderground v.1.15,2013-02-10 23:44:00,
2013-02-10 18:54:00,62.6,53.8,30.06,East,92,2.0,5.0,73,0.00,,,0.00,Wunderground v.1.15,2013-02-10 23:54:00,
2013-02-10 19:04:00,62.4,54.0,30.06,SE,144,4.0,4.0,74,0.00,,,0.00,Wunderground v.1.15,2013-02-11 00:04:00,
2013-02-10 19:14:00,62.3,53.9,30.06,ESE,102,4.0,4.0,74,0.00,,,0.00,Wunderground v.1.15,2013-02-11 00:14:00,
2013-02-10 19:24:00,62.2,53.8,30.07,SSE,148,2.0,3.0,74,0.00,,,0.00,Wunderground v.1.15,2013-02-11 00:24:00,
2013-02-10 19:34:00,62.1,53.7,30.09,SSE,148,2.0,2.0,74,0.00,,,0.00,Wunderground v.1.15,2013-02-11 00:34:00,
2013-02-10 19:45:00,62.2,53.4,30.09,ESE,123,2.0,3.0,73,0.00,,,0.00,Wunderground v.1.15,2013-02-11 00:45:00,
2013-02-10 19:55:00,62.8,53.6,30.09,SSE,155,5.0,5.0,72,0.00,,,0.00,Wunderground v.1.15,2013-02-11 00:55:00,
2013-02-10 20:05:00,63.1,53.9,30.09,ESE,118,5.0,5.0,72,0.00,,,0.00,Wunderground v.1.15,2013-02-11 01:05:00,
2013-02-10 20:14:00,63.0,54.2,30.09,SE,138,4.0,4.0,73,0.00,,,0.00,Wunderground v.1.15,2013-02-11 01:14:00,
2013-02-10 20:25:00,62.9,54.5,30.10,South,174,3.0,6.0,74,0.00,,,0.00,Wunderground v.1.15,2013-02-11 01:25:00,
2013-02-10 20:34:00,62.9,54.5,30.10,SE,132,4.0,6.0,74,0.00,,,0.00,Wunderground v.1.15,2013-02-11 01:34:00,
2013-02-10 20:44:00,62.8,54.8,30.10,SE,128,6.0,6.0,75,0.00,,,0.00,Wunderground v.1.15,2013-02-11 01:44:00,
2013-02-10 20:55:00,62.5,54.8,30.10,ESE,115,4.0,4.0,76,0.00,,,0.00,Wunderground v.1.15,2013-02-11 01:55:00,
2013-02-10 21:05:00,62.4,55.1,30.11,ESE,107,2.0,2.0,77,0.00,,,0.00,Wunderground v.1.15,2013-02-11 02:05:00,
2013-02-10 21:24:00,62.2,55.3,30.12,East,94,1.0,1.0,78,0.00,,,0.00,Wunderground v.1.15,2013-02-11 02:24:00,
2013-02-10 21:34:00,61.5,56.0,30.12,East,95,0.0,0.0,82,0.00,,,0.00,Wunderground v.1.15,2013-02-11 02:34:00,
2013-02-10 21:44:00,60.0,56.1,30.12,East,95,0.0,0.0,87,0.08,,,0.02,Wunderground v.1.15,2013-02-11 02:44:00,
2013-02-10 21:54:00,59.0,56.4,30.14,East,95,1.0,1.0,91,0.05,,,0.02,Wunderground v.1.15,2013-02-11 02:54:00,
2013-02-10 22:04:00,58.0,56.0,30.14,East,95,0.0,1.0,93,0.08,,,0.04,Wunderground v.1.15,2013-02-11 03:04:00,
2013-02-10 22:14:00,57.5,55.8,30.14,ENE,66,0.0,0.0,94,0.06,,,0.05,Wunderground v.1.15,2013-02-11 03:14:00,
2013-02-10 22:24:00,57.2,55.8,30.14,North,11,0.0,0.0,95,0.06,,,0.05,Wunderground v.1.15,2013-02-11 03:24:00,
2013-02-10 22:34:00,57.0,55.6,30.14,North,11,0.0,0.0,95,0.13,,,0.07,Wunderground v.1.15,2013-02-11 03:34:00,
2013-02-10 22:55:00,56.5,55.4,30.14,North,11,0.0,0.0,96,0.09,,,0.10,Wunderground v.1.15,2013-02-11 03:55:00,
2013-02-10 23:05:00,56.3,55.2,30.15,North,11,0.0,0.0,96,0.21,,,0.13,Wunderground v.1.15,2013-02-11 04:05:00,
2013-02-10 23:15:00,56.3,55.5,30.15,North,11,0.0,0.0,97,0.15,,,0.15,Wunderground v.1.15,2013-02-11 04:15:00,
2013-02-10 23:25:00,56.2,55.4,30.15,North,11,0.0,0.0,97,0.10,,,0.17,Wunderground v.1.15,2013-02-11 04:25:00,
2013-02-10 23:34:00,56.2,55.4,30.15,North,11,0.0,0.0,97,0.08,,,0.18,Wunderground v.1.15,2013-02-11 04:34:00,
2013-02-10 23:44:00,56.1,55.3,30.15,North,11,0.0,0.0,97,0.09,,,0.20,Wunderground v.1.15,2013-02-11 04:44:00,
2013-02-10 23:54:00,56.1,55.3,30.14,NNE,15,0.0,1.0,97,0.13,,,0.22,Wunderground v.1.15,2013-02-11 04:54:00,